Time;durP1;ratioP1;P1;durP2;ratioP2;P2;SDS_P1;SDS_P2;PMS_P1;PMS_P2;Temp;Humidity;BMP_temperature;BMP_pressure;BME280_temperature;BME280_humidity;BME280_pressure;Samples;Min_cycle;Max_cycle;Signal;HPM_P1;HPM_P2
2023/07/16 00:01:11;;;;;;;0.30;0.30;;;16.10;99.90;;;;;;4994431;28;20199;-69
2023/07/16 00:03:37;;;;;;;0.50;0.50;;;16.20;99.90;;;;;;4991293;28;20354;-68
2023/07/16 00:06:02;;;;;;;1.40;0.65;;;16.40;99.90;;;;;;4992617;28;20203;-68
2023/07/16 00:08:28;;;;;;;0.30;0.30;;;16.60;99.90;;;;;;4992186;28;20191;-68
2023/07/16 00:10:54;;;;;;;0.70;0.70;;;16.60;99.90;;;;;;4992639;28;20265;-68
2023/07/16 00:13:20;;;;;;;0.40;0.40;;;16.60;99.90;;;;;;4992363;28;20239;-67
2023/07/16 00:15:45;;;;;;;0.40;0.40;;;16.60;99.90;;;;;;4992331;28;20199;-68
2023/07/16 00:18:11;;;;;;;0.50;0.50;;;16.50;99.90;;;;;;4990958;28;20688;-67
2023/07/16 00:20:37;;;;;;;0.60;0.60;;;16.40;99.90;;;;;;4992262;28;20211;-67
2023/07/16 00:23:02;;;;;;;0.43;0.43;;;16.30;99.90;;;;;;4992897;28;20242;-68
2023/07/16 00:25:28;;;;;;;0.77;0.77;;;16.30;99.90;;;;;;4991972;28;20734;-67
2023/07/16 00:27:54;;;;;;;0.30;0.30;;;16.30;99.90;;;;;;4991155;28;20195;-67
2023/07/16 00:30:19;;;;;;;0.73;0.73;;;16.30;99.90;;;;;;4991737;28;20663;-67
2023/07/16 00:32:45;;;;;;;0.45;0.45;;;16.30;99.90;;;;;;4991599;28;20249;-67
2023/07/16 00:35:11;;;;;;;0.60;0.60;;;16.20;99.90;;;;;;4992014;28;20200;-67
2023/07/16 00:37:37;;;;;;;0.45;0.45;;;16.20;99.90;;;;;;5002732;28;20294;-68
2023/07/16 00:40:04;;;;;;;0.63;0.63;;;16.10;99.90;;;;;;5011884;28;20203;-68
2023/07/16 00:42:29;;;;;;;0.30;0.30;;;16.10;99.90;;;;;;4994031;28;20204;-67
2023/07/16 00:44:55;;;;;;;0.93;0.80;;;16.00;99.90;;;;;;4990975;28;20623;-67
2023/07/16 00:47:22;;;;;;;0.55;0.55;;;15.90;99.90;;;;;;4991205;28;20192;-68
2023/07/16 00:49:48;;;;;;;1.17;0.93;;;15.80;99.90;;;;;;4991199;28;20730;-67
2023/07/16 00:52:18;;;;;;;0.65;0.63;;;15.80;99.90;;;;;;4991365;28;20274;-67
2023/07/16 00:54:44;;;;;;;0.73;0.50;;;15.80;99.90;;;;;;4991519;28;20721;-67
2023/07/16 00:57:09;;;;;;;1.23;0.50;;;15.70;99.90;;;;;;4991196;28;20200;-67
2023/07/16 00:59:35;;;;;;;0.80;0.80;;;15.70;99.90;;;;;;4991021;28;20192;-67
2023/07/16 01:02:01;;;;;;;1.48;0.90;;;15.70;99.90;;;;;;4997988;23;20261;-72
2023/07/16 01:04:27;;;;;;;0.50;0.50;;;15.80;99.90;;;;;;4971827;28;20893;-73
2023/07/16 01:06:56;;;;;;;0.88;0.60;;;15.70;99.90;;;;;;4976972;28;20203;-72
2023/07/16 01:09:22;;;;;;;0.98;0.90;;;15.60;99.90;;;;;;4994367;28;20187;-72
2023/07/16 01:11:49;;;;;;;0.65;0.65;;;15.60;99.90;;;;;;4994294;28;20234;-73
2023/07/16 01:14:18;;;;;;;0.52;0.50;;;15.70;99.90;;;;;;4994462;28;20334;-72
2023/07/16 01:16:44;;;;;;;0.75;0.75;;;15.70;99.90;;;;;;4994078;28;20191;-72
2023/07/16 01:19:10;;;;;;;0.40;0.40;;;15.80;99.90;;;;;;4994006;28;20204;-72
2023/07/16 01:21:42;;;;;;;0.65;0.50;;;15.80;99.90;;;;;;4993988;28;20844;-72
2023/07/16 01:24:29;;;;;;;2.25;0.95;;;15.80;99.90;;;;;;4976464;28;20755;-72
2023/07/16 01:27:10;;;;;;;1.23;1.13;;;15.80;99.90;;;;;;4976670;28;20670;-73
2023/07/16 01:29:47;;;;;;;3.03;2.30;;;15.80;99.90;;;;;;4993515;28;20226;-72
2023/07/16 01:32:16;;;;;;;0.43;0.43;;;15.80;99.90;;;;;;4994186;28;20700;-72
2023/07/16 01:34:43;;;;;;;0.57;0.57;;;15.80;99.90;;;;;;4993818;28;20202;-72
2023/07/16 01:37:12;;;;;;;0.80;0.68;;;15.70;99.90;;;;;;4996485;28;20293;-72
2023/07/16 01:39:39;;;;;;;0.40;0.40;;;15.70;99.90;;;;;;4993759;28;20666;-72
2023/07/16 01:42:05;;;;;;;0.95;0.65;;;15.70;99.90;;;;;;4993656;28;20200;-73
2023/07/16 01:44:30;;;;;;;0.40;0.40;;;15.70;99.90;;;;;;4993309;28;20210;-73
2023/07/16 01:47:30;;;;;;;1.23;0.98;;;15.80;99.90;;;;;;4976302;28;20674;-73
2023/07/16 01:49:56;;;;;;;0.55;0.55;;;15.80;99.90;;;;;;4992904;28;20207;-73
2023/07/16 01:52:21;;;;;;;1.20;0.93;;;15.80;99.90;;;;;;4993417;28;20207;-71
2023/07/16 01:54:47;;;;;;;0.30;0.30;;;15.90;99.90;;;;;;4993681;28;20245;-72
2023/07/16 01:57:13;;;;;;;0.30;0.30;;;15.90;99.90;;;;;;4993587;28;20684;-71
2023/07/16 01:59:39;;;;;;;0.57;0.57;;;15.80;99.90;;;;;;4993433;28;20200;-71
2023/07/16 02:02:05;;;;;;;0.40;0.40;;;15.80;99.90;;;;;;4994201;28;20214;-71
2023/07/16 02:04:31;;;;;;;0.82;0.60;;;15.80;99.90;;;;;;5012657;28;20215;-71
2023/07/16 02:06:56;;;;;;;0.40;0.40;;;15.90;99.90;;;;;;5013127;28;20194;-71
2023/07/16 02:09:25;;;;;;;0.70;0.70;;;16.00;99.90;;;;;;5012745;28;20600;-72
2023/07/16 02:11:51;;;;;;;0.63;0.57;;;16.10;99.90;;;;;;4995228;28;20191;-71
2023/07/16 02:14:16;;;;;;;0.88;0.80;;;16.10;99.90;;;;;;4985170;28;20207;-71
2023/07/16 02:16:42;;;;;;;0.65;0.65;;;16.10;99.90;;;;;;4993069;28;20278;-71
2023/07/16 02:19:08;;;;;;;1.75;0.90;;;16.10;99.90;;;;;;4993179;28;20211;-72
2023/07/16 02:21:43;;;;;;;0.52;0.52;;;16.10;99.90;;;;;;4993024;28;20203;-72
2023/07/16 02:24:08;;;;;;;0.43;0.43;;;16.20;99.90;;;;;;4993027;28;20211;-72
2023/07/16 02:26:34;;;;;;;0.70;0.70;;;16.20;99.90;;;;;;4992688;28;20203;-72
2023/07/16 02:29:00;;;;;;;0.22;0.22;;;16.20;99.90;;;;;;4993078;28;20200;-72
2023/07/16 02:31:26;;;;;;;1.00;0.73;;;16.20;99.90;;;;;;4992752;28;20196;-72
2023/07/16 02:33:51;;;;;;;0.50;0.50;;;16.20;99.90;;;;;;4975454;28;20199;-72
2023/07/16 02:36:17;;;;;;;0.60;0.60;;;16.20;99.90;;;;;;4992719;28;20270;-71
2023/07/16 02:38:43;;;;;;;0.55;0.52;;;16.30;99.90;;;;;;4982133;28;20211;-72
2023/07/16 02:41:08;;;;;;;0.65;0.65;;;16.30;99.90;;;;;;4992776;28;20210;-72
2023/07/16 02:43:34;;;;;;;0.30;0.30;;;16.40;99.90;;;;;;4992654;28;20758;-72
2023/07/16 02:46:00;;;;;;;1.60;0.90;;;16.40;99.90;;;;;;4992758;28;20282;-72
2023/07/16 02:48:26;;;;;;;0.30;0.30;;;16.40;99.90;;;;;;4992329;28;20274;-72
2023/07/16 02:50:52;;;;;;;0.32;0.32;;;16.40;99.90;;;;;;4992694;28;20234;-72
2023/07/16 02:53:17;;;;;;;0.50;0.50;;;16.40;99.90;;;;;;4992550;28;20218;-72
2023/07/16 02:55:45;;;;;;;0.50;0.50;;;16.40;99.90;;;;;;4992614;28;20199;-71
2023/07/16 02:58:11;;;;;;;0.98;0.73;;;16.50;99.90;;;;;;4992372;28;20208;-72
2023/07/16 03:00:36;;;;;;;0.30;0.30;;;16.60;99.90;;;;;;4990887;28;20253;-71
2023/07/16 03:03:02;;;;;;;0.40;0.40;;;16.60;99.90;;;;;;5000568;28;20598;-71
2023/07/16 03:05:28;;;;;;;0.77;0.75;;;16.60;99.90;;;;;;4994253;28;20246;-72
2023/07/16 03:07:54;;;;;;;0.75;0.52;;;16.60;99.90;;;;;;4994644;28;20191;-73
2023/07/16 03:10:21;;;;;;;0.40;0.40;;;16.70;99.90;;;;;;5011843;28;20248;-74
2023/07/16 03:12:47;;;;;;;0.50;0.50;;;16.70;99.90;;;;;;5012046;28;20195;-73
2023/07/16 03:15:12;;;;;;;0.47;0.47;;;16.70;99.90;;;;;;5012309;28;20202;-72
2023/07/16 03:17:38;;;;;;;0.30;0.30;;;16.60;99.90;;;;;;5012088;28;20236;-72
2023/07/16 03:20:05;;;;;;;1.33;0.80;;;16.60;99.90;;;;;;5011927;28;20194;-73
2023/07/16 03:22:40;;;;;;;0.30;0.30;;;16.60;99.90;;;;;;5012243;28;20659;-72
2023/07/16 03:25:06;;;;;;;0.40;0.40;;;16.60;99.90;;;;;;5012976;28;20206;-73
2023/07/16 03:27:32;;;;;;;0.80;0.80;;;16.60;99.90;;;;;;5011848;28;20191;-73
2023/07/16 03:30:02;;;;;;;0.88;0.85;;;16.70;99.90;;;;;;5012493;28;20266;-72
2023/07/16 03:32:28;;;;;;;0.57;0.47;;;16.70;99.90;;;;;;5012242;28;20195;-72
2023/07/16 03:34:53;;;;;;;2.05;1.38;;;16.70;99.90;;;;;;5012100;28;20243;-72
2023/07/16 03:37:22;;;;;;;0.40;0.40;;;16.70;99.90;;;;;;5020344;28;20226;-72
2023/07/16 03:39:48;;;;;;;0.68;0.68;;;16.80;99.90;;;;;;5031696;28;20202;-72
2023/07/16 03:42:13;;;;;;;0.70;0.60;;;16.80;99.90;;;;;;5031693;28;20660;-72
2023/07/16 03:44:39;;;;;;;0.40;0.40;;;16.80;99.90;;;;;;5013409;28;20225;-72
2023/07/16 03:47:05;;;;;;;0.57;0.52;;;16.80;99.90;;;;;;5031639;28;20190;-71
2023/07/16 03:49:31;;;;;;;0.43;0.43;;;16.80;99.90;;;;;;5031250;28;20208;-72
2023/07/16 03:51:56;;;;;;;1.52;0.75;;;16.80;99.90;;;;;;5013937;28;20190;-71
2023/07/16 03:54:22;;;;;;;1.67;1.02;;;16.80;99.90;;;;;;5030022;28;20212;-71
2023/07/16 03:56:51;;;;;;;0.40;0.40;;;16.80;99.90;;;;;;5030923;28;20230;-72
2023/07/16 03:59:16;;;;;;;0.85;0.47;;;16.80;99.90;;;;;;5031758;28;20191;-72
2023/07/16 04:01:42;;;;;;;0.50;0.50;;;16.80;99.90;;;;;;5031229;28;20328;-71
2023/07/16 04:04:08;;;;;;;0.57;0.57;;;16.80;99.90;;;;;;5031077;28;20229;-72
2023/07/16 04:06:33;;;;;;;0.45;0.45;;;16.80;99.90;;;;;;5022727;28;20890;-71
2023/07/16 04:08:59;;;;;;;0.57;0.57;;;16.80;99.90;;;;;;4993790;28;20206;-72
2023/07/16 04:11:25;;;;;;;0.40;0.40;;;16.90;99.90;;;;;;4993714;28;20198;-72
2023/07/16 04:13:50;;;;;;;0.60;0.60;;;16.90;99.90;;;;;;5011601;28;20660;-72
2023/07/16 04:16:16;;;;;;;0.38;0.38;;;16.90;99.90;;;;;;5011445;28;20281;-71
2023/07/16 04:18:42;;;;;;;0.65;0.60;;;16.90;99.90;;;;;;4994149;28;20314;-72
2023/07/16 04:21:08;;;;;;;0.40;0.40;;;16.90;99.90;;;;;;5010964;28;20662;-72
2023/07/16 04:23:35;;;;;;;18.30;1.02;;;16.90;99.90;;;;;;4992831;28;20226;-72
2023/07/16 04:26:01;;;;;;;0.70;0.70;;;16.90;99.90;;;;;;5010860;28;20744;-71
2023/07/16 04:28:26;;;;;;;0.30;0.30;;;16.90;99.90;;;;;;5010911;28;20199;-72
2023/07/16 04:30:52;;;;;;;1.63;0.85;;;16.90;99.90;;;;;;5011230;28;20605;-72
2023/07/16 04:33:19;;;;;;;0.90;0.90;;;16.90;99.90;;;;;;5013727;28;20284;-71
2023/07/16 04:35:44;;;;;;;0.55;0.55;;;16.90;99.90;;;;;;5030861;28;20200;-72
2023/07/16 04:38:10;;;;;;;0.47;0.47;;;17.00;99.90;;;;;;5030731;28;20634;-72
2023/07/16 04:40:36;;;;;;;12.02;0.73;;;17.10;99.90;;;;;;5030811;28;20186;-72
2023/07/16 04:43:04;;;;;;;0.47;0.47;;;17.10;99.90;;;;;;5030958;28;20282;-72
2023/07/16 04:45:30;;;;;;;0.75;0.57;;;17.20;99.90;;;;;;5030479;28;20240;-73
2023/07/16 04:47:55;;;;;;;0.95;0.93;;;17.20;99.90;;;;;;5030840;28;20225;-72
2023/07/16 04:50:21;;;;;;;0.40;0.40;;;17.20;99.90;;;;;;5030465;28;20198;-71
2023/07/16 04:52:47;;;;;;;0.60;0.60;;;17.20;99.90;;;;;;5030803;28;20186;-73
2023/07/16 04:55:13;;;;;;;0.82;0.70;;;17.20;99.90;;;;;;5029530;28;20204;-73
2023/07/16 04:57:39;;;;;;;0.73;0.73;;;17.30;99.90;;;;;;5030684;28;20198;-72
2023/07/16 05:00:05;;;;;;;6.75;0.82;;;17.40;99.90;;;;;;5030330;28;20629;-73
2023/07/16 05:02:32;;;;;;;0.30;0.30;;;17.50;99.90;;;;;;5024160;28;20227;-73
2023/07/16 05:04:58;;;;;;;0.40;0.40;;;17.40;99.90;;;;;;5010722;28;20238;-73
2023/07/16 05:07:24;;;;;;;0.70;0.70;;;17.50;99.90;;;;;;5010603;28;20232;-73
2023/07/16 05:09:50;;;;;;;0.60;0.60;;;17.50;99.90;;;;;;4992636;28;20208;-73
2023/07/16 05:12:15;;;;;;;0.50;0.50;;;17.60;99.90;;;;;;4993513;28;20281;-73
2023/07/16 05:14:47;;;;;;;0.30;0.30;;;17.60;99.90;;;;;;5010459;28;20269;-72
2023/07/16 05:17:13;;;;;;;0.30;0.30;;;17.70;99.90;;;;;;4993133;28;20207;-73
2023/07/16 05:19:39;;;;;;;0.95;0.63;;;17.80;99.90;;;;;;4993063;28;20678;-73
2023/07/16 05:22:06;;;;;;;0.75;0.47;;;17.90;99.90;;;;;;4992825;28;20214;-72
2023/07/16 05:24:32;;;;;;;0.20;0.20;;;17.90;99.90;;;;;;4992282;28;20214;-72
2023/07/16 05:26:57;;;;;;;1.05;0.95;;;18.00;99.90;;;;;;5009885;28;20201;-72
2023/07/16 05:29:23;;;;;;;0.57;0.50;;;18.10;99.90;;;;;;5009676;28;20273;-73
2023/07/16 05:31:55;;;;;;;1.38;0.68;;;18.10;99.90;;;;;;5010121;28;20187;-73
2023/07/16 05:34:21;;;;;;;0.40;0.40;;;18.10;99.90;;;;;;5010390;28;20245;-73
2023/07/16 05:36:46;;;;;;;0.30;0.30;;;18.20;99.90;;;;;;5014807;28;20190;-73
2023/07/16 05:39:12;;;;;;;1.15;0.98;;;18.30;99.90;;;;;;5030516;28;20208;-73
2023/07/16 05:41:41;;;;;;;0.40;0.40;;;18.40;99.90;;;;;;5012393;28;20290;-73
2023/07/16 05:44:08;;;;;;;0.60;0.60;;;18.50;99.90;;;;;;5030116;28;20250;-73
2023/07/16 05:46:34;;;;;;;0.68;0.60;;;18.50;99.90;;;;;;5029240;28;20258;-73
2023/07/16 05:48:59;;;;;;;1.55;0.85;;;18.60;99.90;;;;;;5012138;28;20198;-73
2023/07/16 05:51:25;;;;;;;0.20;0.20;;;18.60;99.90;;;;;;5032565;28;20273;-73
2023/07/16 05:53:51;;;;;;;0.52;0.52;;;18.60;99.90;;;;;;5033934;28;20373;-72
2023/07/16 05:56:17;;;;;;;0.95;0.77;;;18.60;99.90;;;;;;5015698;28;20190;-73
2023/07/16 05:58:42;;;;;;;0.40;0.40;;;18.60;99.90;;;;;;5028211;28;20195;-73
2023/07/16 06:01:08;;;;;;;0.90;0.70;;;18.50;99.90;;;;;;4995870;28;20540;-72
2023/07/16 06:03:34;;;;;;;0.75;0.50;;;18.40;99.90;;;;;;5013153;28;20231;-72
2023/07/16 06:06:00;;;;;;;0.28;0.28;;;18.20;99.90;;;;;;4996779;28;20248;-72
2023/07/16 06:08:26;;;;;;;1.13;0.85;;;18.10;99.90;;;;;;5013527;28;20550;-73
2023/07/16 06:10:52;;;;;;;0.52;0.52;;;18.10;99.90;;;;;;5013237;28;20270;-72
2023/07/16 06:13:17;;;;;;;0.40;0.40;;;17.90;99.90;;;;;;5013105;28;20210;-72
2023/07/16 06:15:43;;;;;;;0.30;0.30;;;17.80;99.90;;;;;;5011596;28;20211;-72
2023/07/16 06:18:09;;;;;;;0.55;0.55;;;17.80;99.90;;;;;;5013399;28;20593;-72
2023/07/16 06:20:35;;;;;;;4.55;0.82;;;17.90;99.90;;;;;;4995453;28;20206;-72
2023/07/16 06:23:01;;;;;;;0.47;0.47;;;18.00;99.90;;;;;;5013253;28;20230;-72
2023/07/16 06:25:27;;;;;;;0.60;0.60;;;18.00;99.90;;;;;;5012310;28;20223;-72
2023/07/16 06:27:53;;;;;;;0.80;0.50;;;18.10;99.90;;;;;;5012973;28;20214;-72
2023/07/16 06:30:26;;;;;;;0.75;0.75;;;18.10;99.90;;;;;;5027779;28;20302;-72
2023/07/16 06:32:52;;;;;;;0.40;0.40;;;18.20;99.90;;;;;;5028518;28;20203;-71
2023/07/16 06:35:18;;;;;;;0.30;0.30;;;18.40;99.90;;;;;;5013080;28;20206;-71
2023/07/16 06:37:44;;;;;;;0.50;0.50;;;18.40;99.90;;;;;;5024973;28;20214;-71
2023/07/16 06:40:10;;;;;;;0.80;0.80;;;18.40;99.90;;;;;;5033059;28;20225;-71
2023/07/16 06:42:35;;;;;;;0.82;0.77;;;18.40;99.90;;;;;;5032482;28;20248;-72
2023/07/16 06:45:03;;;;;;;1.02;0.80;;;18.40;99.90;;;;;;5032749;28;20244;-71
2023/07/16 06:47:28;;;;;;;0.43;0.43;;;18.30;99.90;;;;;;5032470;28;20186;-72
2023/07/16 06:49:54;;;;;;;0.50;0.50;;;18.10;99.90;;;;;;5032914;28;20194;-72
2023/07/16 06:52:27;;;;;;;0.43;0.43;;;18.10;99.90;;;;;;5032584;28;20221;-73
2023/07/16 06:54:56;;;;;;;0.88;0.88;;;18.10;99.90;;;;;;5028011;28;20245;-72
2023/07/16 06:57:23;;;;;;;1.40;0.77;;;18.20;99.90;;;;;;5012583;28;20238;-73
2023/07/16 06:59:49;;;;;;;0.40;0.40;;;18.20;99.90;;;;;;5012840;28;20194;-72
2023/07/16 07:02:16;;;;;;;1.27;0.65;;;18.40;99.90;;;;;;5011339;28;20241;-72
2023/07/16 07:04:42;;;;;;;0.30;0.30;;;18.50;99.90;;;;;;4994881;28;20215;-73
2023/07/16 07:07:08;;;;;;;0.93;0.90;;;18.50;99.90;;;;;;5010908;28;20561;-72
2023/07/16 07:09:34;;;;;;;0.40;0.40;;;18.40;99.90;;;;;;4991684;28;20211;-72
2023/07/16 07:12:01;;;;;;;0.40;0.40;;;18.30;99.90;;;;;;4993141;28;20183;-72
2023/07/16 07:14:26;;;;;;;1.00;0.85;;;18.40;99.90;;;;;;4992858;28;20235;-72
2023/07/16 07:16:52;;;;;;;0.95;0.50;;;18.40;99.90;;;;;;4992977;28;20254;-72
2023/07/16 07:19:18;;;;;;;0.32;0.32;;;18.50;99.90;;;;;;4992665;28;20214;-72
2023/07/16 07:21:44;;;;;;;0.50;0.40;;;18.60;99.90;;;;;;4992682;28;20226;-73
2023/07/16 07:24:09;;;;;;;0.80;0.60;;;18.60;99.90;;;;;;4992751;28;20195;-72
2023/07/16 07:26:35;;;;;;;0.38;0.38;;;18.50;99.90;;;;;;4992629;28;20202;-73
2023/07/16 07:29:01;;;;;;;0.20;0.20;;;18.50;99.90;;;;;;4992649;28;20198;-72
2023/07/16 07:31:27;;;;;;;0.32;0.32;;;18.50;99.90;;;;;;4992396;28;20219;-71
2023/07/16 07:33:53;;;;;;;0.28;0.28;;;18.50;99.90;;;;;;4992576;28;20199;-71
2023/07/16 07:36:19;;;;;;;0.32;0.32;;;18.50;99.90;;;;;;4992096;28;20193;-72
2023/07/16 07:38:45;;;;;;;0.38;0.38;;;18.40;99.90;;;;;;5011631;28;20191;-71
2023/07/16 07:41:11;;;;;;;0.40;0.40;;;18.40;99.90;;;;;;5011559;28;20280;-72
2023/07/16 07:43:37;;;;;;;0.63;0.63;;;18.50;99.90;;;;;;5011153;28;20665;-72
2023/07/16 07:46:02;;;;;;;0.40;0.40;;;18.50;99.90;;;;;;5010061;28;20214;-72
2023/07/16 07:48:28;;;;;;;0.95;0.57;;;18.50;99.90;;;;;;5011369;28;20261;-72
2023/07/16 07:50:54;;;;;;;0.63;0.63;;;18.30;99.90;;;;;;5012164;28;20281;-73
2023/07/16 07:53:19;;;;;;;2.45;0.40;;;18.30;99.90;;;;;;5012418;28;20245;-72
2023/07/16 07:55:46;;;;;;;0.38;0.38;;;18.40;99.90;;;;;;5011675;28;20195;-72
2023/07/16 07:58:12;;;;;;;0.65;0.60;;;18.50;99.90;;;;;;5011770;28;20195;-71
2023/07/16 08:00:38;;;;;;;0.40;0.40;;;18.60;99.90;;;;;;5011222;28;20282;-71
2023/07/16 08:03:04;;;;;;;0.57;0.45;;;18.60;99.90;;;;;;5011477;28;20237;-72
2023/07/16 08:05:29;;;;;;;0.68;0.52;;;18.60;99.90;;;;;;4992995;28;20585;-71
2023/07/16 08:07:55;;;;;;;0.40;0.40;;;18.60;99.90;;;;;;4990719;28;20200;-71
2023/07/16 08:10:24;;;;;;;0.40;0.40;;;18.60;99.90;;;;;;4991372;28;20215;-71
2023/07/16 08:12:52;;;;;;;0.65;0.65;;;18.50;99.90;;;;;;4991686;28;20206;-72
2023/07/16 08:15:18;;;;;;;0.30;0.30;;;18.50;99.90;;;;;;4990280;28;20239;-72
2023/07/16 08:17:45;;;;;;;0.50;0.50;;;18.40;99.90;;;;;;4990731;28;20230;-72
2023/07/16 08:20:11;;;;;;;0.43;0.43;;;18.30;99.90;;;;;;5005151;28;20261;-72
2023/07/16 08:22:38;;;;;;;0.50;0.50;;;18.20;99.90;;;;;;4991637;28;20199;-71
2023/07/16 08:25:05;;;;;;;0.90;0.82;;;18.20;99.90;;;;;;5006562;28;20578;-71
2023/07/16 08:27:31;;;;;;;4.60;0.98;;;18.20;99.90;;;;;;4991655;28;20277;-71
2023/07/16 08:29:57;;;;;;;0.28;0.28;;;18.30;99.90;;;;;;4991757;28;20195;-72
2023/07/16 08:32:23;;;;;;;0.38;0.38;;;18.40;99.90;;;;;;4990933;28;20202;-72
2023/07/16 08:34:49;;;;;;;0.55;0.55;;;18.40;99.90;;;;;;4991451;28;20289;-72
2023/07/16 08:37:15;;;;;;;0.30;0.30;;;18.40;99.90;;;;;;4999085;28;20195;-72
2023/07/16 08:39:41;;;;;;;0.40;0.40;;;18.40;99.90;;;;;;5011086;28;20218;-72
2023/07/16 08:42:10;;;;;;;0.30;0.30;;;18.50;99.90;;;;;;5011045;28;20194;-71
2023/07/16 08:44:38;;;;;;;0.43;0.40;;;18.70;99.90;;;;;;5010740;28;20236;-71
2023/07/16 08:47:05;;;;;;;3.60;0.57;;;18.80;99.90;;;;;;5011020;28;20273;-71
2023/07/16 08:49:32;;;;;;;0.85;0.82;;;18.90;99.90;;;;;;4993207;28;20214;-72
2023/07/16 08:52:00;;;;;;;0.35;0.35;;;18.90;99.90;;;;;;5011124;28;20731;-72
2023/07/16 08:54:26;;;;;;;0.20;0.20;;;18.80;99.90;;;;;;5010773;28;20199;-72
2023/07/16 08:56:52;;;;;;;0.47;0.47;;;18.80;99.90;;;;;;4993158;28;20264;-71
2023/07/16 08:59:18;;;;;;;0.60;0.60;;;18.60;99.90;;;;;;5010257;28;20267;-71
2023/07/16 09:01:47;;;;;;;0.85;0.77;;;18.30;99.90;;;;;;4992771;28;20226;-71
2023/07/16 09:04:12;;;;;;;0.40;0.40;;;18.30;99.90;;;;;;5009643;28;20222;-72
2023/07/16 09:06:38;;;;;;;0.30;0.30;;;18.30;99.90;;;;;;5010755;28;20728;-72
2023/07/16 09:09:04;;;;;;;0.75;0.75;;;18.10;99.90;;;;;;5010941;28;20241;-71
2023/07/16 09:11:29;;;;;;;0.40;0.40;;;18.20;99.90;;;;;;5004272;28;20200;-71
2023/07/16 09:13:55;;;;;;;0.52;0.30;;;18.40;99.90;;;;;;4991337;28;20764;-72
2023/07/16 09:16:21;;;;;;;0.40;0.40;;;18.30;99.90;;;;;;4987741;28;20211;-73
2023/07/16 09:18:47;;;;;;;0.35;0.35;;;18.40;99.90;;;;;;5006073;28;20721;-72
2023/07/16 09:21:13;;;;;;;0.85;0.40;;;18.40;99.90;;;;;;4991217;28;20265;-71
2023/07/16 09:23:42;;;;;;;0.43;0.43;;;18.50;99.90;;;;;;4991069;28;20195;-72
2023/07/16 09:26:08;;;;;;;0.52;0.52;;;18.60;99.90;;;;;;4992441;28;20295;-72
2023/07/16 09:28:37;;;;;;;0.30;0.30;;;18.70;99.90;;;;;;4994746;28;20278;-73
2023/07/16 09:31:05;;;;;;;0.65;0.60;;;18.80;99.90;;;;;;4995691;28;20196;-73
2023/07/16 09:33:32;;;;;;;0.20;0.20;;;18.80;99.90;;;;;;4994528;28;20270;-73
2023/07/16 09:35:58;;;;;;;0.22;0.22;;;19.20;99.90;;;;;;4992923;28;20577;-73
2023/07/16 09:38:24;;;;;;;0.43;0.43;;;19.60;99.90;;;;;;5011046;28;20290;-73
2023/07/16 09:40:55;;;;;;;0.20;0.20;;;20.10;99.90;;;;;;5013516;28;20277;-72
2023/07/16 09:43:21;;;;;;;0.20;0.20;;;20.80;99.90;;;;;;5010884;28;20221;-72
2023/07/16 09:45:47;;;;;;;0.80;0.80;;;21.00;99.90;;;;;;4993887;28;20418;-73
2023/07/16 09:48:13;;;;;;;0.47;0.47;;;21.00;99.90;;;;;;4993741;28;20196;-74
2023/07/16 09:50:46;;;;;;;0.20;0.20;;;20.60;99.90;;;;;;4993352;28;20258;-73
2023/07/16 09:53:14;;;;;;;0.50;0.50;;;20.80;99.90;;;;;;4993217;28;20659;-73
2023/07/16 09:55:40;;;;;;;0.20;0.20;;;21.20;99.90;;;;;;4992802;28;20242;-72
2023/07/16 09:58:10;;;;;;;0.20;0.20;;;20.80;99.90;;;;;;5011981;28;20203;-73
2023/07/16 10:00:37;;;;;;;0.63;0.50;;;20.80;99.90;;;;;;5012491;28;20253;-72
2023/07/16 10:03:07;;;;;;;0.47;0.47;;;20.40;99.90;;;;;;5012431;28;20230;-73
2023/07/16 10:05:37;;;;;;;0.45;0.45;;;20.40;99.90;;;;;;4995246;28;20682;-71
2023/07/16 10:08:02;;;;;;;1.13;0.70;;;20.00;99.90;;;;;;5006297;28;20196;-72
2023/07/16 10:10:43;;;;;;;0.20;0.20;;;20.30;99.90;;;;;;4975465;28;20226;-71
2023/07/16 10:13:14;;;;;;;0.50;0.50;;;20.90;99.90;;;;;;4993654;28;20206;-71
2023/07/16 10:15:57;;;;;;;3.78;1.13;;;21.60;99.90;;;;;;4993347;28;20195;-72
2023/07/16 10:18:31;;;;;;;2.40;0.65;;;22.10;99.90;;;;;;4993118;28;20218;-71
2023/07/16 10:21:08;;;;;;;0.60;0.40;;;22.20;99.90;;;;;;5007974;28;20310;-72
2023/07/16 10:23:41;;;;;;;0.20;0.20;;;22.40;99.90;;;;;;4992867;28;20217;-72
2023/07/16 10:26:09;;;;;;;0.13;0.13;;;22.80;99.90;;;;;;4993005;28;20215;-72
2023/07/16 10:28:41;;;;;;;0.30;0.30;;;22.10;99.90;;;;;;4992770;28;20611;-71
2023/07/16 10:31:26;;;;;;;39.10;1.10;;;21.90;99.90;;;;;;4993615;28;20690;-71
2023/07/16 10:34:05;;;;;;;0.30;0.30;;;22.00;99.90;;;;;;5007676;28;20226;-72
2023/07/16 10:36:39;;;;;;;0.55;0.38;;;21.50;99.90;;;;;;4993586;28;20200;-72
2023/07/16 10:39:05;;;;;;;0.20;0.20;;;21.40;99.90;;;;;;5012406;28;20186;-72
2023/07/16 10:41:34;;;;;;;0.52;0.52;;;21.10;99.90;;;;;;4994174;28;20253;-72
2023/07/16 10:44:01;;;;;;;0.32;0.32;;;21.10;99.90;;;;;;4992696;28;20207;-72
2023/07/16 10:46:27;;;;;;;0.30;0.30;;;21.00;99.90;;;;;;4992499;28;20245;-72
2023/07/16 10:48:53;;;;;;;0.30;0.30;;;21.70;99.90;;;;;;4992111;28;20258;-72
2023/07/16 10:51:25;;;;;;;0.25;0.25;;;22.30;99.90;;;;;;4975132;28;20204;-72
2023/07/16 10:53:51;;;;;;;1.35;0.75;;;22.10;99.90;;;;;;5007394;28;20681;-70
2023/07/16 10:56:19;;;;;;;11.52;1.02;;;21.90;99.90;;;;;;5012305;28;20330;-71
2023/07/16 10:58:45;;;;;;;0.65;0.55;;;21.50;99.90;;;;;;5012057;28;20202;-71
2023/07/16 11:01:11;;;;;;;0.50;0.43;;;21.70;99.90;;;;;;5011934;28;20698;-72
2023/07/16 11:03:37;;;;;;;0.28;0.28;;;21.50;99.90;;;;;;5010254;28;20226;-72
2023/07/16 11:06:09;;;;;;;0.90;0.50;;;21.40;99.90;;;;;;4992239;28;20247;-71
2023/07/16 11:08:35;;;;;;;0.38;0.38;;;21.90;99.90;;;;;;4992033;28;20270;-72
2023/07/16 11:11:01;;;;;;;0.40;0.40;;;22.70;99.90;;;;;;4991032;28;20226;-72
2023/07/16 11:13:28;;;;;;;0.20;0.20;;;23.40;99.90;;;;;;5007343;28;20199;-72
2023/07/16 11:15:54;;;;;;;0.20;0.20;;;23.50;99.90;;;;;;4992337;28;20254;-72
2023/07/16 11:18:26;;;;;;;0.47;0.47;;;22.60;99.90;;;;;;4991947;28;20206;-72
2023/07/16 11:20:52;;;;;;;0.20;0.20;;;22.30;99.90;;;;;;4991899;28;20677;-71
2023/07/16 11:23:18;;;;;;;0.75;0.70;;;22.20;99.90;;;;;;4991882;28;20195;-71
2023/07/16 11:25:51;;;;;;;0.47;0.47;;;22.40;99.90;;;;;;4990560;28;20207;-72
2023/07/16 11:28:17;;;;;;;0.30;0.30;;;22.90;99.90;;;;;;4991859;28;20191;-72
2023/07/16 11:30:43;;;;;;;0.98;0.40;;;23.10;99.90;;;;;;4990370;28;20655;-71
2023/07/16 11:33:12;;;;;;;1.00;0.50;;;23.40;99.90;;;;;;5006483;28;20633;-71
2023/07/16 11:35:39;;;;;;;0.70;0.68;;;23.40;99.90;;;;;;4991565;28;20276;-71
2023/07/16 11:38:05;;;;;;;0.22;0.22;;;24.00;99.90;;;;;;5006026;28;20289;-72
2023/07/16 11:40:37;;;;;;;0.73;0.52;;;24.70;99.90;;;;;;4993569;28;20199;-72
2023/07/16 11:43:12;;;;;;;0.77;0.47;;;24.80;99.90;;;;;;5011127;28;20187;-72
2023/07/16 11:45:47;;;;;;;0.30;0.30;;;24.40;99.90;;;;;;5010869;28;20223;-72
2023/07/16 11:48:12;;;;;;;0.57;0.57;;;23.90;99.90;;;;;;5010562;28;20236;-72
2023/07/16 11:50:38;;;;;;;0.30;0.30;;;24.20;99.90;;;;;;5010368;28;20565;-72
2023/07/16 11:53:04;;;;;;;2.05;0.70;;;24.10;99.90;;;;;;4992990;28;20203;-73
2023/07/16 11:55:30;;;;;;;2.80;0.57;;;24.50;99.90;;;;;;5010405;28;20203;-72
2023/07/16 11:57:59;;;;;;;0.60;0.60;;;23.80;99.90;;;;;;4993448;28;20202;-73
2023/07/16 12:00:25;;;;;;;5.05;1.35;;;22.80;99.90;;;;;;4986637;28;20694;-72
2023/07/16 12:02:51;;;;;;;0.73;0.68;;;22.60;99.90;;;;;;4998381;28;20274;-72
2023/07/16 12:05:21;;;;;;;0.30;0.30;;;23.20;99.90;;;;;;4991139;28;20220;-72
2023/07/16 12:07:47;;;;;;;0.20;0.20;;;23.40;99.90;;;;;;4991306;28;20261;-73
2023/07/16 12:10:13;;;;;;;0.32;0.30;;;22.90;99.90;;;;;;4991050;28;20231;-73
2023/07/16 12:12:38;;;;;;;0.20;0.20;;;22.40;99.90;;;;;;4989205;28;20207;-73
2023/07/16 12:15:06;;;;;;;0.28;0.28;;;21.90;99.90;;;;;;4990617;28;20257;-72
2023/07/16 12:17:34;;;;;;;0.20;0.20;;;21.60;99.90;;;;;;5005261;28;20207;-72
2023/07/16 12:20:04;;;;;;;0.35;0.35;;;21.40;99.90;;;;;;5005620;28;20201;-73
2023/07/16 12:22:30;;;;;;;1.90;0.80;;;21.90;99.90;;;;;;4990234;28;20675;-73
2023/07/16 12:24:56;;;;;;;1.10;0.65;;;22.30;99.90;;;;;;4990440;28;20214;-73
2023/07/16 12:27:21;;;;;;;0.30;0.30;;;22.50;99.90;;;;;;4991054;28;20262;-73
2023/07/16 12:29:47;;;;;;;0.38;0.32;;;22.70;99.90;;;;;;4991464;28;20203;-71
2023/07/16 12:32:14;;;;;;;0.80;0.50;;;22.60;99.90;;;;;;4991131;28;20246;-71
2023/07/16 12:34:39;;;;;;;0.40;0.40;;;22.40;99.90;;;;;;4990620;28;20199;-72
2023/07/16 12:37:06;;;;;;;0.20;0.20;;;22.00;99.90;;;;;;4979152;28;20244;-72
2023/07/16 12:39:32;;;;;;;1.23;0.85;;;21.40;99.90;;;;;;5010075;28;20191;-72
2023/07/16 12:41:58;;;;;;;2.13;1.10;;;20.90;99.90;;;;;;5010264;28;20713;-72
2023/07/16 12:44:24;;;;;;;0.57;0.57;;;20.60;99.90;;;;;;5009676;28;20206;-72